sensor_id;sensor_type;location;lat;lon;timestamp;pressure;altitude;pressure_sealevel;temperature;humidity
57628;BME280;43451;49.060;10.616;2023-03-03T00:00:12;96845.72;;;-0.87;100.00
57628;BME280;43451;49.060;10.616;2023-03-03T00:02:38;96844.59;;;-0.86;100.00
57628;BME280;43451;49.060;10.616;2023-03-03T00:05:04;96843.97;;;-0.83;100.00
57628;BME280;43451;49.060;10.616;2023-03-03T00:07:29;96844.13;;;-0.80;100.00
57628;BME280;43451;49.060;10.616;2023-03-03T00:09:55;96849.16;;;-0.87;100.00
57628;BME280;43451;49.060;10.616;2023-03-03T00:12:25;96843.50;;;-0.68;100.00
57628;BME280;43451;49.060;10.616;2023-03-03T00:14:51;96846.94;;;-0.76;100.00
57628;BME280;43451;49.060;10.616;2023-03-03T00:17:22;96852.78;;;-0.74;100.00
57628;BME280;43451;49.060;10.616;2023-03-03T00:19:49;96853.09;;;-0.84;100.00
57628;BME280;43451;49.060;10.616;2023-03-03T00:22:35;96851.34;;;-0.80;100.00
57628;BME280;43451;49.060;10.616;2023-03-03T00:25:30;96861.88;;;-0.75;100.00
57628;BME280;43451;49.060;10.616;2023-03-03T00:28:01;96854.97;;;-0.67;100.00
57628;BME280;43451;49.060;10.616;2023-03-03T00:30:32;96862.03;;;-0.72;100.00
57628;BME280;43451;49.060;10.616;2023-03-03T00:32:57;96860.94;;;-0.79;100.00
57628;BME280;43451;49.060;10.616;2023-03-03T00:35:31;96856.38;;;-0.87;100.00
57628;BME280;43451;49.060;10.616;2023-03-03T00:38:01;96860.44;;;-0.90;100.00
57628;BME280;43451;49.060;10.616;2023-03-03T00:40:38;96856.69;;;-1.06;100.00
57628;BME280;43451;49.060;10.616;2023-03-03T00:43:24;96854.97;;;-1.11;100.00
57628;BME280;43451;49.060;10.616;2023-03-03T00:45:54;96857.78;;;-1.16;100.00
57628;BME280;43451;49.060;10.616;2023-03-03T00:50:45;96851.78;;;-1.22;100.00
57628;BME280;43451;49.060;10.616;2023-03-03T00:53:13;96854.31;;;-1.25;100.00
57628;BME280;43451;49.060;10.616;2023-03-03T00:55:38;96857.41;;;-1.41;100.00
57628;BME280;43451;49.060;10.616;2023-03-03T00:58:05;96857.81;;;-1.56;100.00
57628;BME280;43451;49.060;10.616;2023-03-03T01:00:31;96853.72;;;-1.62;100.00
57628;BME280;43451;49.060;10.616;2023-03-03T01:02:59;96856.09;;;-1.60;100.00
57628;BME280;43451;49.060;10.616;2023-03-03T01:05:26;96858.75;;;-1.60;100.00
57628;BME280;43451;49.060;10.616;2023-03-03T01:07:51;96850.91;;;-1.66;100.00
57628;BME280;43451;49.060;10.616;2023-03-03T01:10:16;96855.72;;;-1.76;100.00
57628;BME280;43451;49.060;10.616;2023-03-03T01:12:42;96853.69;;;-1.79;100.00
57628;BME280;43451;49.060;10.616;2023-03-03T01:15:09;96853.19;;;-1.81;100.00
57628;BME280;43451;49.060;10.616;2023-03-03T01:17:35;96857.28;;;-1.75;100.00
57628;BME280;43451;49.060;10.616;2023-03-03T01:20:02;96855.16;;;-1.56;100.00
57628;BME280;43451;49.060;10.616;2023-03-03T01:22:27;96855.66;;;-1.54;100.00
57628;BME280;43451;49.060;10.616;2023-03-03T01:24:53;96857.13;;;-1.79;100.00
57628;BME280;43451;49.060;10.616;2023-03-03T01:27:18;96861.59;;;-1.97;100.00
57628;BME280;43451;49.060;10.616;2023-03-03T01:29:43;96855.22;;;-1.87;100.00
57628;BME280;43451;49.060;10.616;2023-03-03T01:32:11;96853.28;;;-1.64;100.00
57628;BME280;43451;49.060;10.616;2023-03-03T01:34:36;96855.69;;;-1.45;100.00
57628;BME280;43451;49.060;10.616;2023-03-03T01:37:02;96855.03;;;-1.51;100.00
57628;BME280;43451;49.060;10.616;2023-03-03T01:39:27;96857.38;;;-1.58;100.00
57628;BME280;43451;49.060;10.616;2023-03-03T01:41:53;96858.59;;;-1.64;100.00
57628;BME280;43451;49.060;10.616;2023-03-03T01:44:18;96850.78;;;-1.60;100.00
57628;BME280;43451;49.060;10.616;2023-03-03T01:46:48;96840.56;;;-1.67;100.00
57628;BME280;43451;49.060;10.616;2023-03-03T01:52:24;96844.22;;;-2.03;100.00
57628;BME280;43451;49.060;10.616;2023-03-03T01:54:56;96842.56;;;-2.13;100.00
57628;BME280;43451;49.060;10.616;2023-03-03T01:57:32;96843.94;;;-2.24;100.00
57628;BME280;43451;49.060;10.616;2023-03-03T01:59:59;96841.09;;;-2.27;100.00
57628;BME280;43451;49.060;10.616;2023-03-03T02:02:26;96836.22;;;-2.34;100.00
57628;BME280;43451;49.060;10.616;2023-03-03T02:04:52;96839.66;;;-2.34;100.00
57628;BME280;43451;49.060;10.616;2023-03-03T02:07:20;96832.78;;;-2.35;100.00
57628;BME280;43451;49.060;10.616;2023-03-03T02:10:17;96846.19;;;-2.40;100.00
57628;BME280;43451;49.060;10.616;2023-03-03T02:12:50;96841.97;;;-2.41;100.00
57628;BME280;43451;49.060;10.616;2023-03-03T02:15:27;96846.88;;;-2.03;100.00
57628;BME280;43451;49.060;10.616;2023-03-03T02:17:59;96844.38;;;-1.91;100.00
57628;BME280;43451;49.060;10.616;2023-03-03T02:22:59;96841.38;;;-1.98;100.00
57628;BME280;43451;49.060;10.616;2023-03-03T02:28:24;96839.22;;;-1.96;100.00
57628;BME280;43451;49.060;10.616;2023-03-03T02:30:54;96847.00;;;-2.08;100.00
57628;BME280;43451;49.060;10.616;2023-03-03T02:33:20;96846.16;;;-2.17;100.00
57628;BME280;43451;49.060;10.616;2023-03-03T02:35:46;96841.28;;;-2.24;100.00
57628;BME280;43451;49.060;10.616;2023-03-03T02:38:28;96848.94;;;-2.22;100.00
57628;BME280;43451;49.060;10.616;2023-03-03T02:41:15;96842.38;;;-2.25;100.00
57628;BME280;43451;49.060;10.616;2023-03-03T02:46:24;96841.91;;;-2.49;100.00
57628;BME280;43451;49.060;10.616;2023-03-03T02:48:49;96837.47;;;-2.54;100.00
57628;BME280;43451;49.060;10.616;2023-03-03T02:51:15;96829.66;;;-2.59;100.00
57628;BME280;43451;49.060;10.616;2023-03-03T02:53:40;96834.59;;;-2.13;100.00
57628;BME280;43451;49.060;10.616;2023-03-03T02:56:06;96839.50;;;-1.97;100.00
57628;BME280;43451;49.060;10.616;2023-03-03T02:58:34;96839.94;;;-2.04;100.00
57628;BME280;43451;49.060;10.616;2023-03-03T03:00:59;96839.63;;;-2.11;100.00
57628;BME280;43451;49.060;10.616;2023-03-03T03:03:25;96847.09;;;-2.13;100.00
57628;BME280;43451;49.060;10.616;2023-03-03T03:05:50;96833.78;;;-2.22;100.00
57628;BME280;43451;49.060;10.616;2023-03-03T03:08:16;96845.50;;;-2.23;100.00
57628;BME280;43451;49.060;10.616;2023-03-03T03:10:41;96841.31;;;-2.15;100.00
57628;BME280;43451;49.060;10.616;2023-03-03T03:13:07;96832.69;;;-2.21;100.00
57628;BME280;43451;49.060;10.616;2023-03-03T03:15:34;96841.88;;;-2.27;100.00
57628;BME280;43451;49.060;10.616;2023-03-03T03:17:59;96847.72;;;-2.16;100.00
57628;BME280;43451;49.060;10.616;2023-03-03T03:20:25;96842.22;;;-2.20;100.00
57628;BME280;43451;49.060;10.616;2023-03-03T03:22:50;96850.47;;;-2.30;100.00
57628;BME280;43451;49.060;10.616;2023-03-03T03:25:16;96855.88;;;-2.13;100.00
57628;BME280;43451;49.060;10.616;2023-03-03T03:27:41;96844.72;;;-2.23;100.00
57628;BME280;43451;49.060;10.616;2023-03-03T03:30:08;96841.06;;;-2.05;100.00
57628;BME280;43451;49.060;10.616;2023-03-03T03:32:34;96844.31;;;-2.08;100.00
57628;BME280;43451;49.060;10.616;2023-03-03T03:34:59;96849.13;;;-2.19;100.00
57628;BME280;43451;49.060;10.616;2023-03-03T03:37:24;96850.78;;;-2.31;100.00
57628;BME280;43451;49.060;10.616;2023-03-03T03:39:50;96848.84;;;-2.40;100.00
57628;BME280;43451;49.060;10.616;2023-03-03T03:42:15;96850.56;;;-2.44;100.00
57628;BME280;43451;49.060;10.616;2023-03-03T03:44:41;96843.34;;;-2.43;100.00
57628;BME280;43451;49.060;10.616;2023-03-03T03:47:06;96844.44;;;-2.22;100.00
57628;BME280;43451;49.060;10.616;2023-03-03T03:49:50;96852.69;;;-2.23;100.00
57628;BME280;43451;49.060;10.616;2023-03-03T03:52:15;96858.06;;;-2.15;100.00
57628;BME280;43451;49.060;10.616;2023-03-03T03:54:41;96856.91;;;-2.22;100.00
57628;BME280;43451;49.060;10.616;2023-03-03T03:57:07;96852.81;;;-2.28;100.00
57628;BME280;43451;49.060;10.616;2023-03-03T03:59:32;96847.91;;;-2.44;100.00
57628;BME280;43451;49.060;10.616;2023-03-03T04:01:58;96851.63;;;-2.67;100.00
57628;BME280;43451;49.060;10.616;2023-03-03T04:04:23;96850.13;;;-2.82;100.00
57628;BME280;43451;49.060;10.616;2023-03-03T04:06:48;96859.59;;;-2.90;100.00
57628;BME280;43451;49.060;10.616;2023-03-03T04:09:14;96860.09;;;-2.88;100.00
57628;BME280;43451;49.060;10.616;2023-03-03T04:11:40;96860.78;;;-2.96;100.00
57628;BME280;43451;49.060;10.616;2023-03-03T04:14:05;96856.41;;;-3.00;100.00
57628;BME280;43451;49.060;10.616;2023-03-03T04:16:31;96857.78;;;-3.03;100.00
57628;BME280;43451;49.060;10.616;2023-03-03T04:18:56;96854.75;;;-3.10;100.00
57628;BME280;43451;49.060;10.616;2023-03-03T04:21:22;96854.75;;;-3.10;100.00
57628;BME280;43451;49.060;10.616;2023-03-03T04:23:49;96862.72;;;-3.10;100.00
57628;BME280;43451;49.060;10.616;2023-03-03T04:26:14;96856.22;;;-3.04;100.00
57628;BME280;43451;49.060;10.616;2023-03-03T04:28:40;96867.63;;;-3.04;100.00
57628;BME280;43451;49.060;10.616;2023-03-03T04:31:05;96868.81;;;-3.10;100.00
57628;BME280;43451;49.060;10.616;2023-03-03T04:33:30;96869.28;;;-3.08;100.00
57628;BME280;43451;49.060;10.616;2023-03-03T04:35:56;96879.22;;;-2.99;100.00
57628;BME280;43451;49.060;10.616;2023-03-03T04:38:21;96878.19;;;-2.90;100.00
57628;BME280;43451;49.060;10.616;2023-03-03T04:40:47;96867.47;;;-2.85;100.00
57628;BME280;43451;49.060;10.616;2023-03-03T04:43:13;96864.69;;;-2.80;100.00
57628;BME280;43451;49.060;10.616;2023-03-03T04:45:38;96869.88;;;-2.74;100.00
57628;BME280;43451;49.060;10.616;2023-03-03T04:48:04;96867.22;;;-2.74;100.00
57628;BME280;43451;49.060;10.616;2023-03-03T04:50:30;96865.53;;;-2.70;100.00
57628;BME280;43451;49.060;10.616;2023-03-03T04:52:56;96868.09;;;-2.65;100.00
57628;BME280;43451;49.060;10.616;2023-03-03T04:55:21;96869.03;;;-2.61;100.00
57628;BME280;43451;49.060;10.616;2023-03-03T04:57:47;96872.06;;;-2.54;100.00
57628;BME280;43451;49.060;10.616;2023-03-03T05:00:36;96881.03;;;-2.50;100.00
57628;BME280;43451;49.060;10.616;2023-03-03T05:03:02;96870.38;;;-2.50;100.00
57628;BME280;43451;49.060;10.616;2023-03-03T05:05:28;96866.50;;;-2.44;100.00
57628;BME280;43451;49.060;10.616;2023-03-03T05:07:54;96879.22;;;-2.41;100.00
57628;BME280;43451;49.060;10.616;2023-03-03T05:10:19;96881.13;;;-2.33;100.00
57628;BME280;43451;49.060;10.616;2023-03-03T05:12:45;96873.03;;;-2.27;100.00
57628;BME280;43451;49.060;10.616;2023-03-03T05:15:11;96885.72;;;-2.24;100.00
57628;BME280;43451;49.060;10.616;2023-03-03T05:17:36;96889.50;;;-2.17;100.00
57628;BME280;43451;49.060;10.616;2023-03-03T05:20:03;96897.66;;;-2.13;100.00
57628;BME280;43451;49.060;10.616;2023-03-03T05:22:30;96888.47;;;-2.07;100.00
57628;BME280;43451;49.060;10.616;2023-03-03T05:24:55;96891.78;;;-2.01;100.00
57628;BME280;43451;49.060;10.616;2023-03-03T05:27:22;96892.56;;;-2.01;100.00
57628;BME280;43451;49.060;10.616;2023-03-03T05:29:57;96895.91;;;-1.95;100.00
57628;BME280;43451;49.060;10.616;2023-03-03T05:32:23;96894.84;;;-1.85;100.00
57628;BME280;43451;49.060;10.616;2023-03-03T05:34:48;96890.91;;;-1.88;100.00
57628;BME280;43451;49.060;10.616;2023-03-03T05:37:15;96885.59;;;-1.88;100.00
57628;BME280;43451;49.060;10.616;2023-03-03T05:39:40;96890.78;;;-1.83;100.00
57628;BME280;43451;49.060;10.616;2023-03-03T05:42:06;96895.19;;;-1.78;100.00
57628;BME280;43451;49.060;10.616;2023-03-03T05:44:34;96899.28;;;-1.72;100.00
57628;BME280;43451;49.060;10.616;2023-03-03T05:46:59;96880.44;;;-1.45;100.00
57628;BME280;43451;49.060;10.616;2023-03-03T05:49:25;96892.66;;;-1.44;100.00
57628;BME280;43451;49.060;10.616;2023-03-03T05:51:51;96889.53;;;-1.46;100.00
57628;BME280;43451;49.060;10.616;2023-03-03T05:54:16;96897.38;;;-1.41;100.00
57628;BME280;43451;49.060;10.616;2023-03-03T05:56:42;96893.28;;;-1.47;100.00
57628;BME280;43451;49.060;10.616;2023-03-03T05:59:08;96893.09;;;-1.50;100.00
57628;BME280;43451;49.060;10.616;2023-03-03T06:01:33;96895.94;;;-1.47;100.00
57628;BME280;43451;49.060;10.616;2023-03-03T06:03:59;96900.66;;;-1.44;100.00
57628;BME280;43451;49.060;10.616;2023-03-03T06:06:24;96897.69;;;-1.33;100.00
57628;BME280;43451;49.060;10.616;2023-03-03T06:08:50;96904.91;;;-1.34;100.00
57628;BME280;43451;49.060;10.616;2023-03-03T06:11:17;96914.56;;;-1.07;100.00
57628;BME280;43451;49.060;10.616;2023-03-03T06:13:43;96916.72;;;-1.09;100.00
57628;BME280;43451;49.060;10.616;2023-03-03T06:16:09;96926.63;;;-1.09;100.00
57628;BME280;43451;49.060;10.616;2023-03-03T06:18:38;96923.38;;;-0.80;100.00
57628;BME280;43451;49.060;10.616;2023-03-03T06:21:06;96919.63;;;-0.79;100.00
57628;BME280;43451;49.060;10.616;2023-03-03T06:23:38;96929.19;;;-0.78;100.00
57628;BME280;43451;49.060;10.616;2023-03-03T06:26:04;96924.78;;;-0.91;100.00
57628;BME280;43451;49.060;10.616;2023-03-03T06:28:29;96926.50;;;-0.87;100.00
57628;BME280;43451;49.060;10.616;2023-03-03T06:30:55;96927.94;;;-0.63;100.00
57628;BME280;43451;49.060;10.616;2023-03-03T06:33:23;96941.41;;;-0.51;100.00
57628;BME280;43451;49.060;10.616;2023-03-03T06:35:49;96932.50;;;-0.47;100.00
57628;BME280;43451;49.060;10.616;2023-03-03T06:38:15;96931.56;;;-0.59;100.00
57628;BME280;43451;49.060;10.616;2023-03-03T06:40:41;96933.44;;;-0.60;100.00
57628;BME280;43451;49.060;10.616;2023-03-03T06:43:06;96945.03;;;-0.38;100.00
57628;BME280;43451;49.060;10.616;2023-03-03T06:45:32;96946.44;;;-0.24;100.00
57628;BME280;43451;49.060;10.616;2023-03-03T06:51:21;96952.72;;;-0.11;100.00
57628;BME280;43451;49.060;10.616;2023-03-03T06:53:51;96961.03;;;-0.04;100.00
57628;BME280;43451;49.060;10.616;2023-03-03T06:56:23;96953.50;;;-0.02;100.00
57628;BME280;43451;49.060;10.616;2023-03-03T06:58:53;96958.34;;;-0.04;100.00
57628;BME280;43451;49.060;10.616;2023-03-03T07:01:19;96959.31;;;0.01;100.00
57628;BME280;43451;49.060;10.616;2023-03-03T07:03:45;96965.44;;;0.10;100.00
57628;BME280;43451;49.060;10.616;2023-03-03T07:06:20;96969.19;;;0.09;100.00
57628;BME280;43451;49.060;10.616;2023-03-03T07:08:48;96967.78;;;0.11;100.00
57628;BME280;43451;49.060;10.616;2023-03-03T07:14:18;96963.34;;;0.15;100.00
57628;BME280;43451;49.060;10.616;2023-03-03T07:16:45;96966.81;;;0.16;100.00
57628;BME280;43451;49.060;10.616;2023-03-03T07:19:25;96973.59;;;0.13;100.00
57628;BME280;43451;49.060;10.616;2023-03-03T07:21:53;96983.47;;;0.21;100.00
57628;BME280;43451;49.060;10.616;2023-03-03T07:24:28;96984.25;;;0.22;100.00
57628;BME280;43451;49.060;10.616;2023-03-03T07:27:30;96978.91;;;0.22;100.00
57628;BME280;43451;49.060;10.616;2023-03-03T07:30:16;96984.72;;;0.33;100.00
57628;BME280;43451;49.060;10.616;2023-03-03T07:32:46;96981.41;;;0.27;100.00
57628;BME280;43451;49.060;10.616;2023-03-03T07:38:00;96975.56;;;0.42;100.00
57628;BME280;43451;49.060;10.616;2023-03-03T07:40:34;96976.03;;;0.44;100.00
57628;BME280;43451;49.060;10.616;2023-03-03T07:43:42;96991.59;;;0.42;100.00
57628;BME280;43451;49.060;10.616;2023-03-03T07:48:55;96987.03;;;0.52;100.00
57628;BME280;43451;49.060;10.616;2023-03-03T07:51:35;96985.38;;;0.68;100.00
57628;BME280;43451;49.060;10.616;2023-03-03T07:56:42;97002.19;;;0.77;100.00
57628;BME280;43451;49.060;10.616;2023-03-03T07:59:21;96998.66;;;0.94;100.00
57628;BME280;43451;49.060;10.616;2023-03-03T08:01:54;97001.78;;;0.96;100.00
57628;BME280;43451;49.060;10.616;2023-03-03T08:04:40;97003.78;;;1.08;100.00
57628;BME280;43451;49.060;10.616;2023-03-03T08:07:16;97000.38;;;0.99;100.00
57628;BME280;43451;49.060;10.616;2023-03-03T08:10:00;96995.56;;;1.13;100.00
57628;BME280;43451;49.060;10.616;2023-03-03T08:12:39;97008.03;;;1.38;99.29
57628;BME280;43451;49.060;10.616;2023-03-03T08:17:44;96997.53;;;1.54;96.58
57628;BME280;43451;49.060;10.616;2023-03-03T08:23:01;96995.91;;;1.62;93.40
57628;BME280;43451;49.060;10.616;2023-03-03T08:25:30;96996.50;;;1.68;94.11
57628;BME280;43451;49.060;10.616;2023-03-03T08:28:28;96988.16;;;1.69;92.34
57628;BME280;43451;49.060;10.616;2023-03-03T08:30:53;96980.75;;;1.66;94.02
57628;BME280;43451;49.060;10.616;2023-03-03T08:33:19;96989.38;;;1.72;94.56
57628;BME280;43451;49.060;10.616;2023-03-03T08:35:45;96995.31;;;1.56;94.64
57628;BME280;43451;49.060;10.616;2023-03-03T08:38:12;97005.03;;;1.61;94.94
57628;BME280;43451;49.060;10.616;2023-03-03T08:40:38;97012.25;;;1.69;95.18
57628;BME280;43451;49.060;10.616;2023-03-03T08:43:04;97009.34;;;1.74;93.96
57628;BME280;43451;49.060;10.616;2023-03-03T08:45:30;97009.69;;;1.94;93.52
57628;BME280;43451;49.060;10.616;2023-03-03T08:47:56;97010.91;;;1.96;93.77
57628;BME280;43451;49.060;10.616;2023-03-03T08:50:22;97005.97;;;2.07;93.15
57628;BME280;43451;49.060;10.616;2023-03-03T08:52:47;97018.38;;;2.12;91.13
57628;BME280;43451;49.060;10.616;2023-03-03T08:55:13;97021.63;;;2.17;90.22
57628;BME280;43451;49.060;10.616;2023-03-03T08:57:38;97015.03;;;2.15;91.17
57628;BME280;43451;49.060;10.616;2023-03-03T09:00:06;97021.75;;;2.21;90.67
57628;BME280;43451;49.060;10.616;2023-03-03T09:02:32;97023.81;;;2.36;90.70
57628;BME280;43451;49.060;10.616;2023-03-03T09:04:57;97017.03;;;2.39;89.42
57628;BME280;43451;49.060;10.616;2023-03-03T09:07:23;97023.47;;;2.25;87.07
57628;BME280;43451;49.060;10.616;2023-03-03T09:09:48;97034.22;;;2.38;87.09
57628;BME280;43451;49.060;10.616;2023-03-03T09:12:17;97029.97;;;2.37;86.20
57628;BME280;43451;49.060;10.616;2023-03-03T09:14:43;97035.00;;;2.38;86.93
57628;BME280;43451;49.060;10.616;2023-03-03T09:17:27;97037.16;;;2.45;85.83
57628;BME280;43451;49.060;10.616;2023-03-03T09:19:57;97034.38;;;2.53;85.81
57628;BME280;43451;49.060;10.616;2023-03-03T09:22:25;97047.16;;;2.69;85.69
57628;BME280;43451;49.060;10.616;2023-03-03T09:24:54;97035.22;;;2.78;84.94
57628;BME280;43451;49.060;10.616;2023-03-03T09:27:30;97041.72;;;2.90;83.62
57628;BME280;43451;49.060;10.616;2023-03-03T09:30:26;97034.66;;;2.85;82.89
57628;BME280;43451;49.060;10.616;2023-03-03T09:32:55;97036.38;;;2.90;83.67
57628;BME280;43451;49.060;10.616;2023-03-03T09:35:35;97035.34;;;2.94;84.88
57628;BME280;43451;49.060;10.616;2023-03-03T09:38:29;97037.25;;;2.94;82.49
57628;BME280;43451;49.060;10.616;2023-03-03T09:51:50;97038.72;;;3.03;82.87
57628;BME280;43451;49.060;10.616;2023-03-03T09:57:16;97033.03;;;3.05;82.78
57628;BME280;43451;49.060;10.616;2023-03-03T10:06:14;97028.88;;;2.83;85.76
57628;BME280;43451;49.060;10.616;2023-03-03T10:09:08;97040.84;;;3.10;85.24
57628;BME280;43451;49.060;10.616;2023-03-03T10:19:35;97038.63;;;4.14;79.70
57628;BME280;43451;49.060;10.616;2023-03-03T10:22:26;97035.72;;;4.07;77.02
57628;BME280;43451;49.060;10.616;2023-03-03T10:27:35;97020.94;;;4.13;81.27
57628;BME280;43451;49.060;10.616;2023-03-03T10:30:37;97032.84;;;4.56;76.28
57628;BME280;43451;49.060;10.616;2023-03-03T10:35:57;97037.16;;;5.04;73.78
57628;BME280;43451;49.060;10.616;2023-03-03T10:44:38;97049.84;;;5.87;69.09
57628;BME280;43451;49.060;10.616;2023-03-03T10:50:02;97051.47;;;6.65;65.30
57628;BME280;43451;49.060;10.616;2023-03-03T10:58:34;97038.63;;;6.39;66.89
57628;BME280;43451;49.060;10.616;2023-03-03T11:06:24;97037.91;;;6.42;64.13
57628;BME280;43451;49.060;10.616;2023-03-03T11:14:47;97037.56;;;6.24;67.85
57628;BME280;43451;49.060;10.616;2023-03-03T11:28:28;97039.28;;;6.13;66.10
57628;BME280;43451;49.060;10.616;2023-03-03T11:31:16;97037.06;;;6.19;65.87
57628;BME280;43451;49.060;10.616;2023-03-03T11:36:20;97025.34;;;6.31;64.24
57628;BME280;43451;49.060;10.616;2023-03-03T11:38:58;97021.72;;;6.42;63.78
57628;BME280;43451;49.060;10.616;2023-03-03T11:41:52;97010.22;;;6.45;66.40
57628;BME280;43451;49.060;10.616;2023-03-03T11:44:33;97002.28;;;6.76;63.21
57628;BME280;43451;49.060;10.616;2023-03-03T11:47:11;97007.16;;;6.89;64.63
57628;BME280;43451;49.060;10.616;2023-03-03T11:55:34;97004.44;;;7.12;62.06
57628;BME280;43451;49.060;10.616;2023-03-03T11:58:21;97004.50;;;7.16;60.89
57628;BME280;43451;49.060;10.616;2023-03-03T12:00:53;97002.31;;;7.25;60.16
57628;BME280;43451;49.060;10.616;2023-03-03T12:03:33;96997.50;;;7.11;60.61
57628;BME280;43451;49.060;10.616;2023-03-03T12:11:46;96994.91;;;7.45;62.78
57628;BME280;43451;49.060;10.616;2023-03-03T12:14:23;96993.50;;;7.55;60.54
57628;BME280;43451;49.060;10.616;2023-03-03T12:17:05;96989.84;;;7.70;59.91
57628;BME280;43451;49.060;10.616;2023-03-03T12:20:07;96988.38;;;7.76;61.16
57628;BME280;43451;49.060;10.616;2023-03-03T12:25:28;96989.69;;;8.16;58.94
57628;BME280;43451;49.060;10.616;2023-03-03T12:28:09;96982.88;;;8.29;58.79
57628;BME280;43451;49.060;10.616;2023-03-03T12:48:16;96977.78;;;8.58;57.09
57628;BME280;43451;49.060;10.616;2023-03-03T12:54:13;96971.00;;;8.78;55.69
57628;BME280;43451;49.060;10.616;2023-03-03T12:56:55;96974.16;;;8.84;55.84
57628;BME280;43451;49.060;10.616;2023-03-03T12:59:48;96963.81;;;8.97;55.03
57628;BME280;43451;49.060;10.616;2023-03-03T13:05:19;96958.13;;;9.09;56.27
57628;BME280;43451;49.060;10.616;2023-03-03T13:10:42;96962.09;;;9.22;53.81
57628;BME280;43451;49.060;10.616;2023-03-03T13:16:12;96949.88;;;8.95;55.04
57628;BME280;43451;49.060;10.616;2023-03-03T13:18:52;96950.41;;;9.15;55.69
57628;BME280;43451;49.060;10.616;2023-03-03T13:21:21;96948.47;;;9.12;54.90
57628;BME280;43451;49.060;10.616;2023-03-03T13:26:38;96952.78;;;9.20;55.30
57628;BME280;43451;49.060;10.616;2023-03-03T13:31:54;96945.84;;;9.26;54.00
57628;BME280;43451;49.060;10.616;2023-03-03T13:35:00;96939.72;;;9.33;53.54
57628;BME280;43451;49.060;10.616;2023-03-03T13:39:57;96942.16;;;9.52;53.78
57628;BME280;43451;49.060;10.616;2023-03-03T13:44:55;96944.50;;;9.57;52.07
57628;BME280;43451;49.060;10.616;2023-03-03T13:47:24;96945.22;;;9.47;52.62
57628;BME280;43451;49.060;10.616;2023-03-03T13:55:45;96950.22;;;9.45;54.15
57628;BME280;43451;49.060;10.616;2023-03-03T13:58:24;96943.69;;;9.53;53.54
57628;BME280;43451;49.060;10.616;2023-03-03T14:01:03;96936.25;;;9.36;53.73
57628;BME280;43451;49.060;10.616;2023-03-03T14:03:46;96945.97;;;9.44;52.08
57628;BME280;43451;49.060;10.616;2023-03-03T14:06:22;96945.63;;;9.49;53.52
57628;BME280;43451;49.060;10.616;2023-03-03T14:16:51;96928.91;;;9.43;52.37
57628;BME280;43451;49.060;10.616;2023-03-03T14:19:23;96924.38;;;9.58;52.69
57628;BME280;43451;49.060;10.616;2023-03-03T14:25:07;96924.44;;;9.80;52.06
57628;BME280;43451;49.060;10.616;2023-03-03T14:28:00;96925.28;;;9.91;52.01
57628;BME280;43451;49.060;10.616;2023-03-03T14:30:34;96921.75;;;9.80;52.49
57628;BME280;43451;49.060;10.616;2023-03-03T14:33:15;96926.03;;;9.81;53.35
57628;BME280;43451;49.060;10.616;2023-03-03T14:36:00;96929.97;;;10.05;52.92
57628;BME280;43451;49.060;10.616;2023-03-03T14:43:44;96921.03;;;9.93;52.72
57628;BME280;43451;49.060;10.616;2023-03-03T14:48:54;96921.41;;;9.95;53.08
57628;BME280;43451;49.060;10.616;2023-03-03T14:51:28;96917.59;;;10.07;52.29
57628;BME280;43451;49.060;10.616;2023-03-03T14:53:56;96922.59;;;9.98;52.42
57628;BME280;43451;49.060;10.616;2023-03-03T14:56:29;96911.38;;;10.03;51.99
57628;BME280;43451;49.060;10.616;2023-03-03T15:01:41;96908.25;;;10.01;51.74
57628;BME280;43451;49.060;10.616;2023-03-03T15:04:27;96909.03;;;9.98;51.05
57628;BME280;43451;49.060;10.616;2023-03-03T15:06:55;96911.72;;;9.98;52.23
57628;BME280;43451;49.060;10.616;2023-03-03T15:11:56;96922.19;;;9.92;52.46
57628;BME280;43451;49.060;10.616;2023-03-03T15:14:36;96908.66;;;9.96;51.89
57628;BME280;43451;49.060;10.616;2023-03-03T15:17:38;96905.13;;;9.92;52.23
57628;BME280;43451;49.060;10.616;2023-03-03T15:28:57;96904.63;;;9.65;53.13
57628;BME280;43451;49.060;10.616;2023-03-03T15:34:04;96914.28;;;9.55;53.62
57628;BME280;43451;49.060;10.616;2023-03-03T15:37:05;96911.19;;;9.60;54.87
57628;BME280;43451;49.060;10.616;2023-03-03T15:43:04;96905.72;;;9.53;54.29
57628;BME280;43451;49.060;10.616;2023-03-03T15:53:09;96908.78;;;9.48;53.90
57628;BME280;43451;49.060;10.616;2023-03-03T16:01:41;96908.69;;;9.26;54.47
57628;BME280;43451;49.060;10.616;2023-03-03T16:04:15;96917.47;;;9.13;55.18
57628;BME280;43451;49.060;10.616;2023-03-03T16:12:55;96924.09;;;9.15;54.89
57628;BME280;43451;49.060;10.616;2023-03-03T16:23:56;96937.38;;;8.79;55.79
57628;BME280;43451;49.060;10.616;2023-03-03T16:34:46;96944.72;;;8.08;58.11
57628;BME280;43451;49.060;10.616;2023-03-03T16:37:36;96952.34;;;7.99;58.82
57628;BME280;43451;49.060;10.616;2023-03-03T16:40:14;96956.66;;;7.43;64.03
57628;BME280;43451;49.060;10.616;2023-03-03T16:42:44;96953.34;;;7.04;68.61
57628;BME280;43451;49.060;10.616;2023-03-03T16:50:26;96970.59;;;6.30;69.70
57628;BME280;43451;49.060;10.616;2023-03-03T16:55:27;96980.53;;;5.87;72.16
57628;BME280;43451;49.060;10.616;2023-03-03T17:01:08;96987.34;;;5.46;77.30
57628;BME280;43451;49.060;10.616;2023-03-03T17:03:52;96983.38;;;5.24;78.01
57628;BME280;43451;49.060;10.616;2023-03-03T17:09:22;96991.47;;;4.60;80.04
57628;BME280;43451;49.060;10.616;2023-03-03T17:14:31;96999.81;;;3.87;86.21
57628;BME280;43451;49.060;10.616;2023-03-03T17:17:07;97000.75;;;3.79;87.08
57628;BME280;43451;49.060;10.616;2023-03-03T17:25:20;96998.78;;;3.51;88.82
57628;BME280;43451;49.060;10.616;2023-03-03T17:33:26;97017.78;;;2.85;91.95
57628;BME280;43451;49.060;10.616;2023-03-03T17:38:49;97027.28;;;2.70;92.71
57628;BME280;43451;49.060;10.616;2023-03-03T17:44:01;97022.66;;;2.25;91.84